sensor_id;sensor_type;location;lat;lon;timestamp;temperature;humidity
28767;DHT22;15921;52.034;20.650;2023-08-08T00:00:38;15.30;99.90
28767;DHT22;15921;52.034;20.650;2023-08-08T00:03:04;15.20;99.90
28767;DHT22;15921;52.034;20.650;2023-08-08T00:05:30;15.20;99.90
28767;DHT22;15921;52.034;20.650;2023-08-08T00:07:55;15.20;99.90
28767;DHT22;15921;52.034;20.650;2023-08-08T00:10:21;15.20;99.90
28767;DHT22;15921;52.034;20.650;2023-08-08T00:12:47;15.20;99.90
28767;DHT22;15921;52.034;20.650;2023-08-08T00:15:12;15.10;99.90
28767;DHT22;15921;52.034;20.650;2023-08-08T00:17:38;15.10;99.90
28767;DHT22;15921;52.034;20.650;2023-08-08T00:20:04;15.10;99.90
28767;DHT22;15921;52.034;20.650;2023-08-08T00:22:30;15.00;99.90
28767;DHT22;15921;52.034;20.650;2023-08-08T00:24:56;15.10;99.90
28767;DHT22;15921;52.034;20.650;2023-08-08T00:27:22;15.10;99.90
28767;DHT22;15921;52.034;20.650;2023-08-08T00:29:48;15.10;99.90
28767;DHT22;15921;52.034;20.650;2023-08-08T00:32:13;15.10;99.90
28767;DHT22;15921;52.034;20.650;2023-08-08T00:34:39;15.10;99.90
28767;DHT22;15921;52.034;20.650;2023-08-08T00:37:05;15.10;99.90
28767;DHT22;15921;52.034;20.650;2023-08-08T00:39:30;15.10;99.90
28767;DHT22;15921;52.034;20.650;2023-08-08T00:41:56;15.10;99.90
28767;DHT22;15921;52.034;20.650;2023-08-08T00:44:22;15.10;99.90
28767;DHT22;15921;52.034;20.650;2023-08-08T00:46:47;15.10;99.90
28767;DHT22;15921;52.034;20.650;2023-08-08T00:49:13;15.00;99.90
28767;DHT22;15921;52.034;20.650;2023-08-08T00:51:39;14.90;99.90
28767;DHT22;15921;52.034;20.650;2023-08-08T00:54:05;14.90;99.90
28767;DHT22;15921;52.034;20.650;2023-08-08T00:56:32;14.80;99.90
28767;DHT22;15921;52.034;20.650;2023-08-08T00:58:58;14.80;99.90
28767;DHT22;15921;52.034;20.650;2023-08-08T01:01:23;14.70;99.90
28767;DHT22;15921;52.034;20.650;2023-08-08T01:03:49;14.70;99.90
28767;DHT22;15921;52.034;20.650;2023-08-08T01:06:31;14.70;99.90
28767;DHT22;15921;52.034;20.650;2023-08-08T01:09:09;14.70;99.90
28767;DHT22;15921;52.034;20.650;2023-08-08T01:11:39;14.60;99.90
28767;DHT22;15921;52.034;20.650;2023-08-08T01:14:06;14.60;99.90
28767;DHT22;15921;52.034;20.650;2023-08-08T01:16:33;14.60;99.90
28767;DHT22;15921;52.034;20.650;2023-08-08T01:18:59;14.50;99.90
28767;DHT22;15921;52.034;20.650;2023-08-08T01:21:27;14.50;99.90
28767;DHT22;15921;52.034;20.650;2023-08-08T01:26:41;14.50;99.90
28767;DHT22;15921;52.034;20.650;2023-08-08T01:29:07;14.50;99.90
28767;DHT22;15921;52.034;20.650;2023-08-08T01:31:32;14.50;99.90
28767;DHT22;15921;52.034;20.650;2023-08-08T01:33:58;14.50;99.90
28767;DHT22;15921;52.034;20.650;2023-08-08T01:36:35;14.50;99.90
28767;DHT22;15921;52.034;20.650;2023-08-08T01:39:01;14.40;99.90
28767;DHT22;15921;52.034;20.650;2023-08-08T01:41:34;14.40;99.90
28767;DHT22;15921;52.034;20.650;2023-08-08T01:44:01;14.30;99.90
28767;DHT22;15921;52.034;20.650;2023-08-08T01:46:28;14.30;99.90
28767;DHT22;15921;52.034;20.650;2023-08-08T01:48:57;14.30;99.90
28767;DHT22;15921;52.034;20.650;2023-08-08T01:51:22;14.30;99.90
28767;DHT22;15921;52.034;20.650;2023-08-08T01:53:49;14.20;99.90
28767;DHT22;15921;52.034;20.650;2023-08-08T01:56:15;14.20;99.90
28767;DHT22;15921;52.034;20.650;2023-08-08T01:58:40;14.20;99.90
28767;DHT22;15921;52.034;20.650;2023-08-08T02:01:06;14.20;99.90
28767;DHT22;15921;52.034;20.650;2023-08-08T02:03:32;14.20;99.90
28767;DHT22;15921;52.034;20.650;2023-08-08T02:05:57;14.10;99.90
28767;DHT22;15921;52.034;20.650;2023-08-08T02:08:23;14.10;99.90
28767;DHT22;15921;52.034;20.650;2023-08-08T02:10:49;14.10;99.90
28767;DHT22;15921;52.034;20.650;2023-08-08T02:13:14;14.10;99.90
28767;DHT22;15921;52.034;20.650;2023-08-08T02:15:40;14.00;99.90
28767;DHT22;15921;52.034;20.650;2023-08-08T02:18:06;13.90;99.90
28767;DHT22;15921;52.034;20.650;2023-08-08T02:20:32;13.90;99.90
28767;DHT22;15921;52.034;20.650;2023-08-08T02:22:58;13.90;99.90
28767;DHT22;15921;52.034;20.650;2023-08-08T02:25:25;13.80;99.90
28767;DHT22;15921;52.034;20.650;2023-08-08T02:27:50;13.80;99.90
28767;DHT22;15921;52.034;20.650;2023-08-08T02:30:16;13.80;99.90
28767;DHT22;15921;52.034;20.650;2023-08-08T02:32:42;13.80;99.90
28767;DHT22;15921;52.034;20.650;2023-08-08T02:35:08;13.70;99.90
28767;DHT22;15921;52.034;20.650;2023-08-08T02:37:33;13.60;99.90
28767;DHT22;15921;52.034;20.650;2023-08-08T02:39:59;13.60;99.90
28767;DHT22;15921;52.034;20.650;2023-08-08T02:42:25;13.60;99.90
28767;DHT22;15921;52.034;20.650;2023-08-08T02:44:50;13.60;99.90
28767;DHT22;15921;52.034;20.650;2023-08-08T02:47:16;13.60;99.90
28767;DHT22;15921;52.034;20.650;2023-08-08T02:49:42;13.60;99.90
28767;DHT22;15921;52.034;20.650;2023-08-08T02:52:08;13.50;99.90
28767;DHT22;15921;52.034;20.650;2023-08-08T02:54:33;13.50;99.90
28767;DHT22;15921;52.034;20.650;2023-08-08T02:56:59;13.50;99.90
28767;DHT22;15921;52.034;20.650;2023-08-08T02:59:25;13.50;99.90
28767;DHT22;15921;52.034;20.650;2023-08-08T03:01:50;13.40;99.90
28767;DHT22;15921;52.034;20.650;2023-08-08T03:04:16;13.30;99.90
28767;DHT22;15921;52.034;20.650;2023-08-08T03:06:42;13.30;99.90
28767;DHT22;15921;52.034;20.650;2023-08-08T03:09:08;13.30;99.90
28767;DHT22;15921;52.034;20.650;2023-08-08T03:11:33;13.30;99.90
28767;DHT22;15921;52.034;20.650;2023-08-08T03:13:59;13.30;99.90
28767;DHT22;15921;52.034;20.650;2023-08-08T03:16:25;13.20;99.90
28767;DHT22;15921;52.034;20.650;2023-08-08T03:18:50;13.30;99.90
28767;DHT22;15921;52.034;20.650;2023-08-08T03:21:16;13.20;99.90
28767;DHT22;15921;52.034;20.650;2023-08-08T03:23:42;13.20;99.90
28767;DHT22;15921;52.034;20.650;2023-08-08T03:26:07;13.30;99.90
28767;DHT22;15921;52.034;20.650;2023-08-08T03:28:33;13.30;99.90
28767;DHT22;15921;52.034;20.650;2023-08-08T03:30:58;13.30;99.90
28767;DHT22;15921;52.034;20.650;2023-08-08T03:33:24;13.30;99.90
28767;DHT22;15921;52.034;20.650;2023-08-08T03:35:50;13.30;99.90
28767;DHT22;15921;52.034;20.650;2023-08-08T03:38:16;13.30;99.90
28767;DHT22;15921;52.034;20.650;2023-08-08T03:40:41;13.30;99.90
28767;DHT22;15921;52.034;20.650;2023-08-08T03:43:07;13.30;99.90
28767;DHT22;15921;52.034;20.650;2023-08-08T03:45:33;13.40;99.90
28767;DHT22;15921;52.034;20.650;2023-08-08T03:47:58;13.50;99.90
28767;DHT22;15921;52.034;20.650;2023-08-08T03:50:24;13.60;99.90
28767;DHT22;15921;52.034;20.650;2023-08-08T03:52:50;13.60;99.90
28767;DHT22;15921;52.034;20.650;2023-08-08T03:55:15;13.60;99.90
28767;DHT22;15921;52.034;20.650;2023-08-08T03:57:41;13.70;99.90
28767;DHT22;15921;52.034;20.650;2023-08-08T04:00:07;13.70;99.90
28767;DHT22;15921;52.034;20.650;2023-08-08T04:02:34;13.70;99.90
28767;DHT22;15921;52.034;20.650;2023-08-08T04:05:00;13.80;99.90
28767;DHT22;15921;52.034;20.650;2023-08-08T04:07:26;13.80;99.90
28767;DHT22;15921;52.034;20.650;2023-08-08T04:09:51;13.80;99.90
28767;DHT22;15921;52.034;20.650;2023-08-08T04:12:17;13.90;99.90
28767;DHT22;15921;52.034;20.650;2023-08-08T04:14:42;13.90;99.90
28767;DHT22;15921;52.034;20.650;2023-08-08T04:17:08;13.90;99.90
28767;DHT22;15921;52.034;20.650;2023-08-08T04:19:34;14.00;99.90
28767;DHT22;15921;52.034;20.650;2023-08-08T04:21:59;14.00;99.90
28767;DHT22;15921;52.034;20.650;2023-08-08T04:24:25;14.10;99.90
28767;DHT22;15921;52.034;20.650;2023-08-08T04:26:51;14.10;99.90
28767;DHT22;15921;52.034;20.650;2023-08-08T04:29:16;14.10;99.90
28767;DHT22;15921;52.034;20.650;2023-08-08T04:31:42;14.20;99.90
28767;DHT22;15921;52.034;20.650;2023-08-08T04:34:09;14.30;99.90
28767;DHT22;15921;52.034;20.650;2023-08-08T04:36:35;14.30;99.90
28767;DHT22;15921;52.034;20.650;2023-08-08T04:39:00;14.40;99.90
28767;DHT22;15921;52.034;20.650;2023-08-08T04:41:26;14.60;99.90
28767;DHT22;15921;52.034;20.650;2023-08-08T04:43:52;14.70;99.90
28767;DHT22;15921;52.034;20.650;2023-08-08T04:46:18;14.90;99.90
28767;DHT22;15921;52.034;20.650;2023-08-08T04:48:43;15.10;99.90
28767;DHT22;15921;52.034;20.650;2023-08-08T04:51:09;15.20;99.90
28767;DHT22;15921;52.034;20.650;2023-08-08T04:53:35;15.30;99.90
28767;DHT22;15921;52.034;20.650;2023-08-08T04:56:00;15.20;99.90
28767;DHT22;15921;52.034;20.650;2023-08-08T04:58:26;15.30;99.90
28767;DHT22;15921;52.034;20.650;2023-08-08T05:00:52;15.40;99.90
28767;DHT22;15921;52.034;20.650;2023-08-08T05:03:17;15.40;99.90
28767;DHT22;15921;52.034;20.650;2023-08-08T05:05:43;15.50;99.90
28767;DHT22;15921;52.034;20.650;2023-08-08T05:08:13;15.50;99.90
28767;DHT22;15921;52.034;20.650;2023-08-08T05:10:38;15.60;99.90
28767;DHT22;15921;52.034;20.650;2023-08-08T05:13:04;15.60;99.90
28767;DHT22;15921;52.034;20.650;2023-08-08T05:15:30;15.60;99.90
28767;DHT22;15921;52.034;20.650;2023-08-08T05:17:55;15.70;99.90
28767;DHT22;15921;52.034;20.650;2023-08-08T05:20:21;15.80;99.90
28767;DHT22;15921;52.034;20.650;2023-08-08T05:22:48;15.90;99.90
28767;DHT22;15921;52.034;20.650;2023-08-08T05:25:13;16.00;99.90
28767;DHT22;15921;52.034;20.650;2023-08-08T05:27:39;16.00;99.90
28767;DHT22;15921;52.034;20.650;2023-08-08T05:30:05;16.00;99.90
28767;DHT22;15921;52.034;20.650;2023-08-08T05:32:31;16.00;99.90
28767;DHT22;15921;52.034;20.650;2023-08-08T05:34:57;15.90;99.90
28767;DHT22;15921;52.034;20.650;2023-08-08T05:37:26;15.90;99.90
28767;DHT22;15921;52.034;20.650;2023-08-08T05:39:53;15.80;99.90
28767;DHT22;15921;52.034;20.650;2023-08-08T05:42:19;15.70;99.90
28767;DHT22;15921;52.034;20.650;2023-08-08T05:44:44;15.70;99.90
28767;DHT22;15921;52.034;20.650;2023-08-08T05:47:10;15.70;99.90
28767;DHT22;15921;52.034;20.650;2023-08-08T05:49:37;15.70;99.90
28767;DHT22;15921;52.034;20.650;2023-08-08T05:52:03;15.80;99.90
28767;DHT22;15921;52.034;20.650;2023-08-08T05:54:29;15.90;99.90
28767;DHT22;15921;52.034;20.650;2023-08-08T05:56:55;16.00;99.90
28767;DHT22;15921;52.034;20.650;2023-08-08T05:59:20;16.10;99.90
28767;DHT22;15921;52.034;20.650;2023-08-08T06:01:46;16.20;99.90
28767;DHT22;15921;52.034;20.650;2023-08-08T06:04:13;16.30;99.90
28767;DHT22;15921;52.034;20.650;2023-08-08T06:06:39;16.50;99.90
28767;DHT22;15921;52.034;20.650;2023-08-08T06:09:05;16.70;99.90
28767;DHT22;15921;52.034;20.650;2023-08-08T06:11:31;16.90;99.90
28767;DHT22;15921;52.034;20.650;2023-08-08T06:13:56;17.00;99.90
28767;DHT22;15921;52.034;20.650;2023-08-08T06:16:22;17.10;99.90
28767;DHT22;15921;52.034;20.650;2023-08-08T06:18:48;17.20;99.90
28767;DHT22;15921;52.034;20.650;2023-08-08T06:21:14;17.40;99.90
28767;DHT22;15921;52.034;20.650;2023-08-08T06:23:39;17.60;99.90
28767;DHT22;15921;52.034;20.650;2023-08-08T06:26:05;17.70;99.90
28767;DHT22;15921;52.034;20.650;2023-08-08T06:28:31;17.80;99.90
28767;DHT22;15921;52.034;20.650;2023-08-08T06:30:58;17.80;99.90
28767;DHT22;15921;52.034;20.650;2023-08-08T06:33:24;17.70;99.90
28767;DHT22;15921;52.034;20.650;2023-08-08T06:35:49;17.70;99.90
28767;DHT22;15921;52.034;20.650;2023-08-08T06:38:15;17.70;99.90
28767;DHT22;15921;52.034;20.650;2023-08-08T06:40:41;17.70;99.90
28767;DHT22;15921;52.034;20.650;2023-08-08T06:43:07;17.70;99.90
28767;DHT22;15921;52.034;20.650;2023-08-08T06:45:32;17.80;99.50
28767;DHT22;15921;52.034;20.650;2023-08-08T06:47:58;17.90;99.40
28767;DHT22;15921;52.034;20.650;2023-08-08T06:50:24;18.10;98.80
28767;DHT22;15921;52.034;20.650;2023-08-08T06:52:52;18.10;98.20
28767;DHT22;15921;52.034;20.650;2023-08-08T06:55:18;18.10;97.70
28767;DHT22;15921;52.034;20.650;2023-08-08T06:57:43;18.20;97.50
28767;DHT22;15921;52.034;20.650;2023-08-08T07:00:09;18.20;97.00
28767;DHT22;15921;52.034;20.650;2023-08-08T07:02:39;18.30;97.00
28767;DHT22;15921;52.034;20.650;2023-08-08T07:05:06;18.50;96.60
28767;DHT22;15921;52.034;20.650;2023-08-08T07:07:32;18.60;96.00
28767;DHT22;15921;52.034;20.650;2023-08-08T07:09:59;18.60;95.30
28767;DHT22;15921;52.034;20.650;2023-08-08T07:12:25;18.60;95.40
28767;DHT22;15921;52.034;20.650;2023-08-08T07:14:50;18.70;95.30
28767;DHT22;15921;52.034;20.650;2023-08-08T07:17:16;18.80;94.60
28767;DHT22;15921;52.034;20.650;2023-08-08T07:19:42;18.80;93.90
28767;DHT22;15921;52.034;20.650;2023-08-08T07:22:07;18.90;93.80
28767;DHT22;15921;52.034;20.650;2023-08-08T07:24:34;18.90;93.40
28767;DHT22;15921;52.034;20.650;2023-08-08T07:26:59;19.00;92.90
28767;DHT22;15921;52.034;20.650;2023-08-08T07:29:25;19.00;92.60
28767;DHT22;15921;52.034;20.650;2023-08-08T07:31:54;19.10;92.70
28767;DHT22;15921;52.034;20.650;2023-08-08T07:34:20;19.20;92.10
28767;DHT22;15921;52.034;20.650;2023-08-08T07:36:46;19.40;91.80
28767;DHT22;15921;52.034;20.650;2023-08-08T07:39:12;19.50;91.50
28767;DHT22;15921;52.034;20.650;2023-08-08T07:41:38;19.50;91.40
28767;DHT22;15921;52.034;20.650;2023-08-08T07:44:05;19.50;91.10
28767;DHT22;15921;52.034;20.650;2023-08-08T07:46:31;19.60;91.20
28767;DHT22;15921;52.034;20.650;2023-08-08T07:48:57;19.60;90.80
28767;DHT22;15921;52.034;20.650;2023-08-08T07:51:25;19.50;90.30
28767;DHT22;15921;52.034;20.650;2023-08-08T07:53:51;19.40;90.30
28767;DHT22;15921;52.034;20.650;2023-08-08T07:56:16;19.50;90.30
28767;DHT22;15921;52.034;20.650;2023-08-08T07:58:42;19.50;89.70
28767;DHT22;15921;52.034;20.650;2023-08-08T08:01:08;19.30;90.60
28767;DHT22;15921;52.034;20.650;2023-08-08T08:03:33;19.30;90.40
28767;DHT22;15921;52.034;20.650;2023-08-08T08:05:59;19.20;90.20
28767;DHT22;15921;52.034;20.650;2023-08-08T08:08:25;19.30;90.20
28767;DHT22;15921;52.034;20.650;2023-08-08T08:10:51;19.50;90.20
28767;DHT22;15921;52.034;20.650;2023-08-08T08:13:17;19.70;88.80
28767;DHT22;15921;52.034;20.650;2023-08-08T08:15:43;19.70;88.70
28767;DHT22;15921;52.034;20.650;2023-08-08T08:18:09;19.80;88.40
28767;DHT22;15921;52.034;20.650;2023-08-08T08:20:34;20.00;86.80
28767;DHT22;15921;52.034;20.650;2023-08-08T08:23:00;19.90;86.90
28767;DHT22;15921;52.034;20.650;2023-08-08T08:25:26;19.90;86.70
28767;DHT22;15921;52.034;20.650;2023-08-08T08:27:51;19.70;86.70
28767;DHT22;15921;52.034;20.650;2023-08-08T08:30:17;19.70;87.20
28767;DHT22;15921;52.034;20.650;2023-08-08T08:32:44;19.60;87.50
28767;DHT22;15921;52.034;20.650;2023-08-08T08:35:10;19.50;87.80
28767;DHT22;15921;52.034;20.650;2023-08-08T08:37:37;19.60;88.20
28767;DHT22;15921;52.034;20.650;2023-08-08T08:40:03;19.50;87.70
28767;DHT22;15921;52.034;20.650;2023-08-08T08:42:31;19.30;88.10
28767;DHT22;15921;52.034;20.650;2023-08-08T08:44:59;19.40;86.20
28767;DHT22;15921;52.034;20.650;2023-08-08T08:47:30;19.50;86.40
28767;DHT22;15921;52.034;20.650;2023-08-08T08:49:57;19.70;86.20
28767;DHT22;15921;52.034;20.650;2023-08-08T08:52:23;19.70;85.10
28767;DHT22;15921;52.034;20.650;2023-08-08T08:54:50;19.70;84.80
28767;DHT22;15921;52.034;20.650;2023-08-08T08:57:16;19.60;84.00
28767;DHT22;15921;52.034;20.650;2023-08-08T08:59:42;19.70;83.80
28767;DHT22;15921;52.034;20.650;2023-08-08T09:02:08;19.90;83.70
28767;DHT22;15921;52.034;20.650;2023-08-08T09:04:34;19.90;82.70
28767;DHT22;15921;52.034;20.650;2023-08-08T09:07:01;19.90;82.10
28767;DHT22;15921;52.034;20.650;2023-08-08T09:09:31;20.00;83.20
28767;DHT22;15921;52.034;20.650;2023-08-08T09:11:57;20.20;81.90
28767;DHT22;15921;52.034;20.650;2023-08-08T09:14:24;20.40;81.50
28767;DHT22;15921;52.034;20.650;2023-08-08T09:16:51;20.60;79.70
28767;DHT22;15921;52.034;20.650;2023-08-08T09:19:19;20.70;79.10
28767;DHT22;15921;52.034;20.650;2023-08-08T09:21:45;20.70;78.10
28767;DHT22;15921;52.034;20.650;2023-08-08T09:24:11;20.70;78.00
28767;DHT22;15921;52.034;20.650;2023-08-08T09:26:36;20.60;77.50
28767;DHT22;15921;52.034;20.650;2023-08-08T09:29:03;20.60;76.60
28767;DHT22;15921;52.034;20.650;2023-08-08T09:31:29;20.70;76.80
28767;DHT22;15921;52.034;20.650;2023-08-08T09:34:00;20.70;75.60
28767;DHT22;15921;52.034;20.650;2023-08-08T09:36:26;20.60;75.10
28767;DHT22;15921;52.034;20.650;2023-08-08T09:38:53;20.60;75.60
28767;DHT22;15921;52.034;20.650;2023-08-08T09:41:20;20.60;74.80
28767;DHT22;15921;52.034;20.650;2023-08-08T09:43:48;20.40;74.80
28767;DHT22;15921;52.034;20.650;2023-08-08T09:46:13;20.00;74.60
28767;DHT22;15921;52.034;20.650;2023-08-08T09:48:41;19.70;75.90
28767;DHT22;15921;52.034;20.650;2023-08-08T09:51:08;19.60;76.50
28767;DHT22;15921;52.034;20.650;2023-08-08T09:53:34;19.70;76.90
28767;DHT22;15921;52.034;20.650;2023-08-08T09:56:03;19.80;76.80
28767;DHT22;15921;52.034;20.650;2023-08-08T09:58:30;19.80;75.80
28767;DHT22;15921;52.034;20.650;2023-08-08T10:00:55;19.80;76.00
28767;DHT22;15921;52.034;20.650;2023-08-08T10:03:21;20.00;75.20
28767;DHT22;15921;52.034;20.650;2023-08-08T10:05:47;20.10;74.10
28767;DHT22;15921;52.034;20.650;2023-08-08T10:08:16;20.10;72.90
28767;DHT22;15921;52.034;20.650;2023-08-08T10:10:47;20.10;73.40
28767;DHT22;15921;52.034;20.650;2023-08-08T10:13:23;20.10;72.70
28767;DHT22;15921;52.034;20.650;2023-08-08T10:15:50;20.10;72.10
28767;DHT22;15921;52.034;20.650;2023-08-08T10:18:17;20.10;72.90
28767;DHT22;15921;52.034;20.650;2023-08-08T10:20:46;20.30;72.10
28767;DHT22;15921;52.034;20.650;2023-08-08T10:23:18;20.40;70.60
28767;DHT22;15921;52.034;20.650;2023-08-08T10:25:45;20.50;70.40
28767;DHT22;15921;52.034;20.650;2023-08-08T10:28:17;20.70;69.50
28767;DHT22;15921;52.034;20.650;2023-08-08T10:33:19;21.00;68.30
28767;DHT22;15921;52.034;20.650;2023-08-08T10:38:24;21.20;67.70
28767;DHT22;15921;52.034;20.650;2023-08-08T10:41:01;21.00;68.20
28767;DHT22;15921;52.034;20.650;2023-08-08T10:43:29;20.90;66.90
28767;DHT22;15921;52.034;20.650;2023-08-08T10:46:03;21.00;67.00
28767;DHT22;15921;52.034;20.650;2023-08-08T10:48:29;21.10;66.00
28767;DHT22;15921;52.034;20.650;2023-08-08T10:50:59;21.40;65.60
28767;DHT22;15921;52.034;20.650;2023-08-08T10:53:27;21.60;65.00
28767;DHT22;15921;52.034;20.650;2023-08-08T10:56:03;21.60;63.80
28767;DHT22;15921;52.034;20.650;2023-08-08T10:58:40;21.50;63.20
28767;DHT22;15921;52.034;20.650;2023-08-08T11:01:06;21.60;63.10
28767;DHT22;15921;52.034;20.650;2023-08-08T11:03:38;21.80;63.30
28767;DHT22;15921;52.034;20.650;2023-08-08T11:06:06;22.00;62.70
28767;DHT22;15921;52.034;20.650;2023-08-08T11:08:33;22.20;61.60
28767;DHT22;15921;52.034;20.650;2023-08-08T11:10:59;22.50;60.20
28767;DHT22;15921;52.034;20.650;2023-08-08T11:13:25;22.50;59.70
28767;DHT22;15921;52.034;20.650;2023-08-08T11:15:52;22.20;59.50
28767;DHT22;15921;52.034;20.650;2023-08-08T11:18:17;21.90;60.40
28767;DHT22;15921;52.034;20.650;2023-08-08T11:20:44;21.70;60.40
28767;DHT22;15921;52.034;20.650;2023-08-08T11:23:10;21.60;60.60
28767;DHT22;15921;52.034;20.650;2023-08-08T11:25:40;21.60;60.90
28767;DHT22;15921;52.034;20.650;2023-08-08T11:28:07;21.70;61.70
28767;DHT22;15921;52.034;20.650;2023-08-08T11:30:36;21.80;61.60
28767;DHT22;15921;52.034;20.650;2023-08-08T11:33:03;22.20;61.60
28767;DHT22;15921;52.034;20.650;2023-08-08T11:35:29;22.60;61.80
28767;DHT22;15921;52.034;20.650;2023-08-08T11:37:57;22.60;60.70
28767;DHT22;15921;52.034;20.650;2023-08-08T11:40:25;22.50;59.80
28767;DHT22;15921;52.034;20.650;2023-08-08T11:42:52;22.40;60.30
28767;DHT22;15921;52.034;20.650;2023-08-08T11:45:19;22.20;60.00
28767;DHT22;15921;52.034;20.650;2023-08-08T11:47:55;22.10;60.90
28767;DHT22;15921;52.034;20.650;2023-08-08T11:50:22;22.40;60.30
28767;DHT22;15921;52.034;20.650;2023-08-08T11:52:49;22.80;60.50
28767;DHT22;15921;52.034;20.650;2023-08-08T11:55:16;23.00;59.60
28767;DHT22;15921;52.034;20.650;2023-08-08T11:57:42;23.10;59.40
28767;DHT22;15921;52.034;20.650;2023-08-08T12:00:09;22.80;57.90
28767;DHT22;15921;52.034;20.650;2023-08-08T12:02:39;22.50;57.20
28767;DHT22;15921;52.034;20.650;2023-08-08T12:05:06;22.80;57.10
28767;DHT22;15921;52.034;20.650;2023-08-08T12:07:33;23.00;57.10
28767;DHT22;15921;52.034;20.650;2023-08-08T12:09:59;23.40;57.10
28767;DHT22;15921;52.034;20.650;2023-08-08T12:12:28;23.90;56.20
28767;DHT22;15921;52.034;20.650;2023-08-08T12:14:54;24.00;55.10
28767;DHT22;15921;52.034;20.650;2023-08-08T12:17:23;24.20;54.70
28767;DHT22;15921;52.034;20.650;2023-08-08T12:19:49;24.40;54.30
28767;DHT22;15921;52.034;20.650;2023-08-08T12:22:15;24.80;54.10
28767;DHT22;15921;52.034;20.650;2023-08-08T12:24:40;25.40;53.50
28767;DHT22;15921;52.034;20.650;2023-08-08T12:27:06;26.80;51.10
28767;DHT22;15921;52.034;20.650;2023-08-08T12:29:32;27.30;49.90
28767;DHT22;15921;52.034;20.650;2023-08-08T12:31:57;27.70;49.30
28767;DHT22;15921;52.034;20.650;2023-08-08T12:34:23;29.90;46.60
28767;DHT22;15921;52.034;20.650;2023-08-08T12:36:49;30.60;45.50
28767;DHT22;15921;52.034;20.650;2023-08-08T12:39:14;31.00;44.10
28767;DHT22;15921;52.034;20.650;2023-08-08T12:41:40;30.10;44.90
28767;DHT22;15921;52.034;20.650;2023-08-08T12:44:06;29.40;45.20
28767;DHT22;15921;52.034;20.650;2023-08-08T12:46:33;28.20;46.70
28767;DHT22;15921;52.034;20.650;2023-08-08T12:48:59;28.10;47.60
28767;DHT22;15921;52.034;20.650;2023-08-08T12:51:25;28.40;47.70
28767;DHT22;15921;52.034;20.650;2023-08-08T12:53:51;29.40;47.20
28767;DHT22;15921;52.034;20.650;2023-08-08T12:56:17;31.60;44.90
28767;DHT22;15921;52.034;20.650;2023-08-08T12:58:42;32.80;42.80
28767;DHT22;15921;52.034;20.650;2023-08-08T13:01:08;30.80;42.80
28767;DHT22;15921;52.034;20.650;2023-08-08T13:03:34;28.40;45.30
28767;DHT22;15921;52.034;20.650;2023-08-08T13:06:00;26.40;48.20
28767;DHT22;15921;52.034;20.650;2023-08-08T13:08:26;24.80;50.20
28767;DHT22;15921;52.034;20.650;2023-08-08T13:10:51;23.60;52.90
28767;DHT22;15921;52.034;20.650;2023-08-08T13:13:18;22.90;54.50
28767;DHT22;15921;52.034;20.650;2023-08-08T13:15:44;22.30;55.20
28767;DHT22;15921;52.034;20.650;2023-08-08T13:18:10;21.80;56.10
28767;DHT22;15921;52.034;20.650;2023-08-08T13:20:37;21.50;56.70
28767;DHT22;15921;52.034;20.650;2023-08-08T13:23:02;21.30;56.70
28767;DHT22;15921;52.034;20.650;2023-08-08T13:25:29;21.20;57.20
28767;DHT22;15921;52.034;20.650;2023-08-08T13:27:56;21.30;57.60
28767;DHT22;15921;52.034;20.650;2023-08-08T13:30:22;21.50;57.40
28767;DHT22;15921;52.034;20.650;2023-08-08T13:32:48;21.70;57.00
28767;DHT22;15921;52.034;20.650;2023-08-08T13:35:14;21.90;56.60
28767;DHT22;15921;52.034;20.650;2023-08-08T13:37:39;22.20;56.60
28767;DHT22;15921;52.034;20.650;2023-08-08T13:40:06;22.40;56.20
28767;DHT22;15921;52.034;20.650;2023-08-08T13:42:31;22.90;55.60
28767;DHT22;15921;52.034;20.650;2023-08-08T13:44:57;23.80;54.10
28767;DHT22;15921;52.034;20.650;2023-08-08T13:47:23;24.20;53.30
28767;DHT22;15921;52.034;20.650;2023-08-08T13:49:48;24.70;52.40
28767;DHT22;15921;52.034;20.650;2023-08-08T13:52:14;26.10;50.60
28767;DHT22;15921;52.034;20.650;2023-08-08T13:54:40;28.80;48.40
28767;DHT22;15921;52.034;20.650;2023-08-08T13:57:05;32.10;44.30
28767;DHT22;15921;52.034;20.650;2023-08-08T13:59:31;33.30;41.80
28767;DHT22;15921;52.034;20.650;2023-08-08T14:01:57;32.00;42.20
28767;DHT22;15921;52.034;20.650;2023-08-08T14:04:22;30.80;43.20
28767;DHT22;15921;52.034;20.650;2023-08-08T14:06:49;31.40;42.50
28767;DHT22;15921;52.034;20.650;2023-08-08T14:09:14;32.30;41.90
28767;DHT22;15921;52.034;20.650;2023-08-08T14:11:40;32.90;41.90
28767;DHT22;15921;52.034;20.650;2023-08-08T14:14:06;34.90;39.60
28767;DHT22;15921;52.034;20.650;2023-08-08T14:16:31;36.40;37.50
28767;DHT22;15921;52.034;20.650;2023-08-08T14:18:58;35.40;37.40
28767;DHT22;15921;52.034;20.650;2023-08-08T14:21:23;35.40;37.30
28767;DHT22;15921;52.034;20.650;2023-08-08T14:23:49;33.60;37.50
28767;DHT22;15921;52.034;20.650;2023-08-08T14:26:15;31.40;39.80
28767;DHT22;15921;52.034;20.650;2023-08-08T14:28:40;31.50;40.10
28767;DHT22;15921;52.034;20.650;2023-08-08T14:31:06;33.60;37.80
28767;DHT22;15921;52.034;20.650;2023-08-08T14:33:35;34.60;36.30
28767;DHT22;15921;52.034;20.650;2023-08-08T14:36:01;34.30;37.00
28767;DHT22;15921;52.034;20.650;2023-08-08T14:38:26;35.10;36.40
28767;DHT22;15921;52.034;20.650;2023-08-08T14:40:53;34.90;36.30
28767;DHT22;15921;52.034;20.650;2023-08-08T14:43:19;34.70;37.30
28767;DHT22;15921;52.034;20.650;2023-08-08T14:45:45;33.20;37.50
28767;DHT22;15921;52.034;20.650;2023-08-08T14:48:11;31.60;39.10
28767;DHT22;15921;52.034;20.650;2023-08-08T14:50:36;32.20;38.60
28767;DHT22;15921;52.034;20.650;2023-08-08T14:53:03;33.60;37.90
28767;DHT22;15921;52.034;20.650;2023-08-08T14:55:28;35.10;36.40
28767;DHT22;15921;52.034;20.650;2023-08-08T14:57:54;36.90;35.10
28767;DHT22;15921;52.034;20.650;2023-08-08T15:00:20;37.50;33.60
28767;DHT22;15921;52.034;20.650;2023-08-08T15:02:45;35.80;34.10
28767;DHT22;15921;52.034;20.650;2023-08-08T15:05:11;32.90;36.30
28767;DHT22;15921;52.034;20.650;2023-08-08T15:07:37;30.50;38.90
28767;DHT22;15921;52.034;20.650;2023-08-08T15:10:03;28.50;41.20
28767;DHT22;15921;52.034;20.650;2023-08-08T15:12:28;26.90;43.60
28767;DHT22;15921;52.034;20.650;2023-08-08T15:14:54;25.90;45.50
28767;DHT22;15921;52.034;20.650;2023-08-08T15:17:20;25.20;46.80